sensor_id;sensor_type;location;lat;lon;timestamp;pressure;altitude;pressure_sealevel;temperature;humidity
6506;BME280;3286;49.858;8.768;2023-03-03T00:01:26;99511.56;;;4.15;41.43
6506;BME280;3286;49.858;8.768;2023-03-03T00:03:53;99523.00;;;4.27;40.86
6506;BME280;3286;49.858;8.768;2023-03-03T00:06:20;99521.41;;;4.24;41.32
6506;BME280;3286;49.858;8.768;2023-03-03T00:08:50;99529.19;;;4.39;40.49
6506;BME280;3286;49.858;8.768;2023-03-03T00:11:16;99519.56;;;4.39;40.38
6506;BME280;3286;49.858;8.768;2023-03-03T00:13:45;99526.06;;;4.33;41.19
6506;BME280;3286;49.858;8.768;2023-03-03T00:16:16;99521.31;;;4.26;40.80
6506;BME280;3286;49.858;8.768;2023-03-03T00:18:45;99526.34;;;4.29;41.01
6506;BME280;3286;49.858;8.768;2023-03-03T00:21:25;99519.75;;;4.36;40.59
6506;BME280;3286;49.858;8.768;2023-03-03T00:24:01;99526.47;;;4.53;40.57
6506;BME280;3286;49.858;8.768;2023-03-03T00:26:34;99529.63;;;4.58;40.36
6506;BME280;3286;49.858;8.768;2023-03-03T00:29:22;99528.38;;;4.64;40.32
6506;BME280;3286;49.858;8.768;2023-03-03T00:31:49;99539.03;;;4.48;40.20
6506;BME280;3286;49.858;8.768;2023-03-03T00:34:23;99541.75;;;4.33;40.15
6506;BME280;3286;49.858;8.768;2023-03-03T00:36:52;99546.56;;;4.40;41.17
6506;BME280;3286;49.858;8.768;2023-03-03T00:39:26;99547.75;;;4.21;42.77
6506;BME280;3286;49.858;8.768;2023-03-03T00:41:54;99552.28;;;4.32;41.69
6506;BME280;3286;49.858;8.768;2023-03-03T00:44:38;99555.84;;;4.31;41.82
6506;BME280;3286;49.858;8.768;2023-03-03T00:47:22;99553.41;;;4.15;42.56
6506;BME280;3286;49.858;8.768;2023-03-03T00:49:50;99550.34;;;3.81;43.55
6506;BME280;3286;49.858;8.768;2023-03-03T00:52:18;99554.59;;;3.96;42.62
6506;BME280;3286;49.858;8.768;2023-03-03T00:54:46;99557.81;;;3.45;44.68
6506;BME280;3286;49.858;8.768;2023-03-03T00:57:13;99561.41;;;3.00;45.85
6506;BME280;3286;49.858;8.768;2023-03-03T00:59:40;99566.88;;;3.25;45.05
6506;BME280;3286;49.858;8.768;2023-03-03T01:02:06;99559.84;;;3.54;43.87
6506;BME280;3286;49.858;8.768;2023-03-03T01:04:33;99563.75;;;3.61;44.30
6506;BME280;3286;49.858;8.768;2023-03-03T01:06:59;99559.56;;;3.59;43.66
6506;BME280;3286;49.858;8.768;2023-03-03T01:09:26;99553.59;;;3.57;43.90
6506;BME280;3286;49.858;8.768;2023-03-03T01:11:54;99558.16;;;3.68;43.63
6506;BME280;3286;49.858;8.768;2023-03-03T01:14:21;99554.88;;;3.64;43.62
6506;BME280;3286;49.858;8.768;2023-03-03T01:16:47;99556.22;;;3.57;44.53
6506;BME280;3286;49.858;8.768;2023-03-03T01:19:15;99558.47;;;3.34;45.11
6506;BME280;3286;49.858;8.768;2023-03-03T01:21:42;99555.78;;;3.36;44.82
6506;BME280;3286;49.858;8.768;2023-03-03T01:24:08;99548.09;;;3.47;44.88
6506;BME280;3286;49.858;8.768;2023-03-03T01:26:35;99551.88;;;3.70;44.18
6506;BME280;3286;49.858;8.768;2023-03-03T01:29:03;99555.16;;;3.74;44.27
6506;BME280;3286;49.858;8.768;2023-03-03T01:31:29;99560.25;;;3.75;43.58
6506;BME280;3286;49.858;8.768;2023-03-03T01:33:56;99555.72;;;3.65;43.92
6506;BME280;3286;49.858;8.768;2023-03-03T01:36:23;99553.56;;;3.71;44.37
6506;BME280;3286;49.858;8.768;2023-03-03T01:38:49;99541.81;;;3.64;44.15
6506;BME280;3286;49.858;8.768;2023-03-03T01:41:16;99534.28;;;3.87;43.82
6506;BME280;3286;49.858;8.768;2023-03-03T01:43:43;99546.81;;;3.40;44.59
6506;BME280;3286;49.858;8.768;2023-03-03T01:46:47;99547.94;;;3.36;44.54
6506;BME280;3286;49.858;8.768;2023-03-03T01:49:18;99546.72;;;3.41;44.37
6506;BME280;3286;49.858;8.768;2023-03-03T01:51:49;99558.47;;;3.48;44.48
6506;BME280;3286;49.858;8.768;2023-03-03T01:54:21;99548.69;;;3.38;44.48
6506;BME280;3286;49.858;8.768;2023-03-03T01:56:49;99549.63;;;3.37;44.66
6506;BME280;3286;49.858;8.768;2023-03-03T01:59:20;99551.75;;;3.44;44.77
6506;BME280;3286;49.858;8.768;2023-03-03T02:01:50;99543.13;;;2.86;45.70
6506;BME280;3286;49.858;8.768;2023-03-03T02:04:17;99547.41;;;3.01;45.75
6506;BME280;3286;49.858;8.768;2023-03-03T02:06:49;99539.00;;;2.53;46.31
6506;BME280;3286;49.858;8.768;2023-03-03T02:09:22;99544.94;;;2.55;46.45
6506;BME280;3286;49.858;8.768;2023-03-03T02:11:54;99543.22;;;2.84;46.05
6506;BME280;3286;49.858;8.768;2023-03-03T02:14:23;99546.00;;;2.67;46.11
6506;BME280;3286;49.858;8.768;2023-03-03T02:16:52;99542.75;;;2.92;45.67
6506;BME280;3286;49.858;8.768;2023-03-03T02:19:24;99541.97;;;2.75;46.00
6506;BME280;3286;49.858;8.768;2023-03-03T02:21:56;99544.81;;;2.87;46.17
6506;BME280;3286;49.858;8.768;2023-03-03T02:24:25;99537.50;;;2.78;46.13
6506;BME280;3286;49.858;8.768;2023-03-03T02:26:54;99529.69;;;2.78;46.31
6506;BME280;3286;49.858;8.768;2023-03-03T02:29:21;99538.88;;;2.40;48.10
6506;BME280;3286;49.858;8.768;2023-03-03T02:31:49;99543.78;;;2.75;46.82
6506;BME280;3286;49.858;8.768;2023-03-03T02:34:15;99551.78;;;2.72;46.86
6506;BME280;3286;49.858;8.768;2023-03-03T02:36:42;99547.50;;;2.71;47.03
6506;BME280;3286;49.858;8.768;2023-03-03T02:39:13;99548.72;;;2.35;47.60
6506;BME280;3286;49.858;8.768;2023-03-03T02:41:45;99542.81;;;2.61;46.79
6506;BME280;3286;49.858;8.768;2023-03-03T02:44:18;99542.47;;;2.68;46.39
6506;BME280;3286;49.858;8.768;2023-03-03T02:46:46;99539.91;;;2.52;46.68
6506;BME280;3286;49.858;8.768;2023-03-03T02:49:15;99534.53;;;2.55;47.85
6506;BME280;3286;49.858;8.768;2023-03-03T02:51:42;99539.63;;;2.56;47.49
6506;BME280;3286;49.858;8.768;2023-03-03T02:54:11;99541.97;;;2.61;47.65
6506;BME280;3286;49.858;8.768;2023-03-03T02:56:38;99542.84;;;2.76;46.51
6506;BME280;3286;49.858;8.768;2023-03-03T02:59:05;99548.94;;;2.46;47.48
6506;BME280;3286;49.858;8.768;2023-03-03T03:01:33;99544.31;;;2.80;46.59
6506;BME280;3286;49.858;8.768;2023-03-03T03:04:03;99554.75;;;2.35;48.04
6506;BME280;3286;49.858;8.768;2023-03-03T03:06:31;99553.47;;;2.42;47.66
6506;BME280;3286;49.858;8.768;2023-03-03T03:08:58;99557.47;;;2.34;48.88
6506;BME280;3286;49.858;8.768;2023-03-03T03:11:24;99564.44;;;2.33;47.84
6506;BME280;3286;49.858;8.768;2023-03-03T03:13:51;99564.00;;;2.41;48.37
6506;BME280;3286;49.858;8.768;2023-03-03T03:16:18;99558.63;;;2.13;48.29
6506;BME280;3286;49.858;8.768;2023-03-03T03:18:46;99560.72;;;2.37;48.09
6506;BME280;3286;49.858;8.768;2023-03-03T03:21:14;99564.91;;;2.25;48.36
6506;BME280;3286;49.858;8.768;2023-03-03T03:23:41;99555.69;;;2.03;49.59
6506;BME280;3286;49.858;8.768;2023-03-03T03:26:07;99556.38;;;2.07;49.24
6506;BME280;3286;49.858;8.768;2023-03-03T03:28:35;99556.25;;;2.09;49.57
6506;BME280;3286;49.858;8.768;2023-03-03T03:31:02;99560.03;;;2.19;49.30
6506;BME280;3286;49.858;8.768;2023-03-03T03:33:30;99554.16;;;2.15;50.05
6506;BME280;3286;49.858;8.768;2023-03-03T03:35:58;99558.53;;;2.15;49.98
6506;BME280;3286;49.858;8.768;2023-03-03T03:38:25;99566.25;;;2.16;50.65
6506;BME280;3286;49.858;8.768;2023-03-03T03:40:54;99553.44;;;2.28;49.83
6506;BME280;3286;49.858;8.768;2023-03-03T03:43:20;99558.75;;;2.26;50.36
6506;BME280;3286;49.858;8.768;2023-03-03T03:45:47;99555.13;;;2.29;50.38
6506;BME280;3286;49.858;8.768;2023-03-03T03:48:14;99558.47;;;2.31;50.45
6506;BME280;3286;49.858;8.768;2023-03-03T03:50:41;99560.34;;;2.29;50.05
6506;BME280;3286;49.858;8.768;2023-03-03T03:53:09;99563.91;;;2.42;51.28
6506;BME280;3286;49.858;8.768;2023-03-03T03:55:35;99570.72;;;2.45;51.71
6506;BME280;3286;49.858;8.768;2023-03-03T03:58:02;99566.00;;;2.52;50.94
6506;BME280;3286;49.858;8.768;2023-03-03T04:00:28;99558.97;;;2.38;51.49
6506;BME280;3286;49.858;8.768;2023-03-03T04:02:55;99560.28;;;2.45;51.13
6506;BME280;3286;49.858;8.768;2023-03-03T04:05:22;99557.69;;;2.59;50.99
6506;BME280;3286;49.858;8.768;2023-03-03T04:07:48;99562.41;;;2.69;50.58
6506;BME280;3286;49.858;8.768;2023-03-03T04:10:17;99561.28;;;2.73;50.41
6506;BME280;3286;49.858;8.768;2023-03-03T04:12:43;99577.69;;;2.44;50.67
6506;BME280;3286;49.858;8.768;2023-03-03T04:15:12;99573.81;;;2.52;50.81
6506;BME280;3286;49.858;8.768;2023-03-03T04:17:40;99580.34;;;2.59;50.67
6506;BME280;3286;49.858;8.768;2023-03-03T04:20:10;99574.22;;;2.29;51.49
6506;BME280;3286;49.858;8.768;2023-03-03T04:22:38;99575.81;;;2.32;51.82
6506;BME280;3286;49.858;8.768;2023-03-03T04:25:05;99577.59;;;2.31;52.03
6506;BME280;3286;49.858;8.768;2023-03-03T04:27:35;99579.09;;;2.36;51.41
6506;BME280;3286;49.858;8.768;2023-03-03T04:30:03;99574.25;;;2.44;51.24
6506;BME280;3286;49.858;8.768;2023-03-03T04:32:31;99581.72;;;2.50;51.87
6506;BME280;3286;49.858;8.768;2023-03-03T04:34:58;99575.94;;;2.45;51.83
6506;BME280;3286;49.858;8.768;2023-03-03T04:37:24;99578.06;;;2.38;52.07
6506;BME280;3286;49.858;8.768;2023-03-03T04:39:51;99587.09;;;2.33;52.46
6506;BME280;3286;49.858;8.768;2023-03-03T04:42:18;99588.41;;;2.09;53.07
6506;BME280;3286;49.858;8.768;2023-03-03T04:44:46;99598.72;;;2.11;52.67
6506;BME280;3286;49.858;8.768;2023-03-03T04:47:12;99597.97;;;2.39;52.15
6506;BME280;3286;49.858;8.768;2023-03-03T04:49:39;99594.91;;;2.63;51.73
6506;BME280;3286;49.858;8.768;2023-03-03T04:52:05;99604.63;;;1.82;53.22
6506;BME280;3286;49.858;8.768;2023-03-03T04:54:32;99601.31;;;2.27;52.22
6506;BME280;3286;49.858;8.768;2023-03-03T04:56:59;99598.19;;;2.20;52.44
6506;BME280;3286;49.858;8.768;2023-03-03T04:59:25;99605.16;;;2.36;52.36
6506;BME280;3286;49.858;8.768;2023-03-03T05:01:53;99609.09;;;1.96;53.08
6506;BME280;3286;49.858;8.768;2023-03-03T05:04:20;99608.38;;;2.25;52.54
6506;BME280;3286;49.858;8.768;2023-03-03T05:06:46;99610.75;;;2.13;51.64
6506;BME280;3286;49.858;8.768;2023-03-03T05:09:13;99615.56;;;1.89;53.35
6506;BME280;3286;49.858;8.768;2023-03-03T05:11:39;99612.22;;;1.87;53.87
6506;BME280;3286;49.858;8.768;2023-03-03T05:14:06;99608.50;;;1.91;53.06
6506;BME280;3286;49.858;8.768;2023-03-03T05:16:33;99614.53;;;1.76;53.68
6506;BME280;3286;49.858;8.768;2023-03-03T05:19:01;99615.47;;;2.07;53.97
6506;BME280;3286;49.858;8.768;2023-03-03T05:21:28;99606.53;;;2.11;53.87
6506;BME280;3286;49.858;8.768;2023-03-03T05:23:54;99600.50;;;1.94;53.82
6506;BME280;3286;49.858;8.768;2023-03-03T05:26:21;99600.91;;;2.02;52.71
6506;BME280;3286;49.858;8.768;2023-03-03T05:28:47;99602.59;;;1.71;54.18
6506;BME280;3286;49.858;8.768;2023-03-03T05:31:14;99590.72;;;2.14;53.21
6506;BME280;3286;49.858;8.768;2023-03-03T05:33:40;99593.78;;;1.90;54.11
6506;BME280;3286;49.858;8.768;2023-03-03T05:36:08;99593.03;;;2.04;53.53
6506;BME280;3286;49.858;8.768;2023-03-03T05:38:35;99602.00;;;2.14;53.47
6506;BME280;3286;49.858;8.768;2023-03-03T05:41:02;99602.13;;;1.65;54.93
6506;BME280;3286;49.858;8.768;2023-03-03T05:43:28;99609.72;;;2.16;53.65
6506;BME280;3286;49.858;8.768;2023-03-03T05:45:55;99603.13;;;1.78;54.21
6506;BME280;3286;49.858;8.768;2023-03-03T05:48:22;99613.88;;;1.88;54.30
6506;BME280;3286;49.858;8.768;2023-03-03T05:50:48;99608.50;;;1.91;54.24
6506;BME280;3286;49.858;8.768;2023-03-03T05:53:17;99619.25;;;1.69;55.11
6506;BME280;3286;49.858;8.768;2023-03-03T05:55:43;99621.94;;;1.83;54.28
6506;BME280;3286;49.858;8.768;2023-03-03T05:58:10;99624.03;;;1.77;54.43
6506;BME280;3286;49.858;8.768;2023-03-03T06:00:37;99622.34;;;2.24;52.94
6506;BME280;3286;49.858;8.768;2023-03-03T06:03:03;99628.31;;;1.94;53.84
6506;BME280;3286;49.858;8.768;2023-03-03T06:05:30;99634.78;;;1.70;54.21
6506;BME280;3286;49.858;8.768;2023-03-03T06:07:57;99634.81;;;1.86;54.33
6506;BME280;3286;49.858;8.768;2023-03-03T06:10:25;99644.69;;;1.80;54.39
6506;BME280;3286;49.858;8.768;2023-03-03T06:12:52;99644.09;;;1.58;55.68
6506;BME280;3286;49.858;8.768;2023-03-03T06:15:19;99643.38;;;1.88;54.80
6506;BME280;3286;49.858;8.768;2023-03-03T06:17:46;99643.09;;;1.61;55.75
6506;BME280;3286;49.858;8.768;2023-03-03T06:20:12;99642.44;;;1.73;56.27
6506;BME280;3286;49.858;8.768;2023-03-03T06:22:39;99646.47;;;1.63;56.82
6506;BME280;3286;49.858;8.768;2023-03-03T06:25:06;99651.69;;;1.79;55.97
6506;BME280;3286;49.858;8.768;2023-03-03T06:27:34;99659.34;;;2.30;54.64
6506;BME280;3286;49.858;8.768;2023-03-03T06:30:01;99660.34;;;1.96;55.74
6506;BME280;3286;49.858;8.768;2023-03-03T06:32:28;99659.25;;;2.00;55.82
6506;BME280;3286;49.858;8.768;2023-03-03T06:34:54;99670.84;;;1.78;56.34
6506;BME280;3286;49.858;8.768;2023-03-03T06:37:21;99671.50;;;1.82;56.17
6506;BME280;3286;49.858;8.768;2023-03-03T06:39:47;99671.03;;;2.07;55.84
6506;BME280;3286;49.858;8.768;2023-03-03T06:42:16;99673.34;;;1.80;56.20
6506;BME280;3286;49.858;8.768;2023-03-03T06:44:44;99684.31;;;2.19;55.52
6506;BME280;3286;49.858;8.768;2023-03-03T06:47:12;99673.59;;;2.39;54.79
6506;BME280;3286;49.858;8.768;2023-03-03T06:49:38;99675.97;;;2.28;55.39
6506;BME280;3286;49.858;8.768;2023-03-03T06:52:11;99672.78;;;2.69;55.00
6506;BME280;3286;49.858;8.768;2023-03-03T06:54:38;99676.22;;;2.39;54.89
6506;BME280;3286;49.858;8.768;2023-03-03T06:57:15;99676.97;;;2.41;55.81
6506;BME280;3286;49.858;8.768;2023-03-03T06:59:41;99688.88;;;2.61;54.74
6506;BME280;3286;49.858;8.768;2023-03-03T07:02:13;99694.16;;;2.29;55.62
6506;BME280;3286;49.858;8.768;2023-03-03T07:04:41;99686.53;;;2.73;54.90
6506;BME280;3286;49.858;8.768;2023-03-03T07:07:15;99695.00;;;3.07;54.13
6506;BME280;3286;49.858;8.768;2023-03-03T07:09:43;99695.97;;;2.90;53.89
6506;BME280;3286;49.858;8.768;2023-03-03T07:12:13;99707.06;;;2.63;55.36
6506;BME280;3286;49.858;8.768;2023-03-03T07:14:41;99706.06;;;2.96;53.80
6506;BME280;3286;49.858;8.768;2023-03-03T07:17:15;99710.97;;;2.86;54.20
6506;BME280;3286;49.858;8.768;2023-03-03T07:19:43;99714.09;;;2.77;54.53
6506;BME280;3286;49.858;8.768;2023-03-03T07:22:15;99727.34;;;2.74;54.96
6506;BME280;3286;49.858;8.768;2023-03-03T07:24:43;99730.69;;;3.07;53.92
6506;BME280;3286;49.858;8.768;2023-03-03T07:27:13;99724.59;;;3.37;52.81
6506;BME280;3286;49.858;8.768;2023-03-03T07:29:42;99731.66;;;2.89;54.79
6506;BME280;3286;49.858;8.768;2023-03-03T07:32:24;99726.44;;;2.89;54.54
6506;BME280;3286;49.858;8.768;2023-03-03T07:34:53;99722.00;;;3.66;52.82
6506;BME280;3286;49.858;8.768;2023-03-03T07:37:27;99736.13;;;2.87;55.06
6506;BME280;3286;49.858;8.768;2023-03-03T07:39:55;99743.66;;;2.61;56.17
6506;BME280;3286;49.858;8.768;2023-03-03T07:42:23;99740.72;;;3.29;54.27
6506;BME280;3286;49.858;8.768;2023-03-03T07:44:54;99748.00;;;2.93;55.88
6506;BME280;3286;49.858;8.768;2023-03-03T07:47:24;99753.19;;;3.69;53.62
6506;BME280;3286;49.858;8.768;2023-03-03T07:49:53;99755.09;;;3.36;54.78
6506;BME280;3286;49.858;8.768;2023-03-03T07:52:25;99761.53;;;3.30;55.17
6506;BME280;3286;49.858;8.768;2023-03-03T07:54:53;99764.91;;;3.47;54.87
6506;BME280;3286;49.858;8.768;2023-03-03T07:57:23;99770.09;;;2.39;57.50
6506;BME280;3286;49.858;8.768;2023-03-03T07:59:52;99771.38;;;2.95;56.68
6506;BME280;3286;49.858;8.768;2023-03-03T08:02:39;99767.06;;;2.47;58.20
6506;BME280;3286;49.858;8.768;2023-03-03T08:05:29;99769.81;;;3.23;56.13
6506;BME280;3286;49.858;8.768;2023-03-03T08:08:13;99766.91;;;2.97;57.04
6506;BME280;3286;49.858;8.768;2023-03-03T08:10:43;99759.69;;;3.32;55.76
6506;BME280;3286;49.858;8.768;2023-03-03T08:13:22;99763.09;;;3.18;56.33
6506;BME280;3286;49.858;8.768;2023-03-03T08:15:51;99783.28;;;2.84;57.52
6506;BME280;3286;49.858;8.768;2023-03-03T08:18:23;99790.44;;;2.16;60.21
6506;BME280;3286;49.858;8.768;2023-03-03T08:20:52;99790.66;;;2.12;60.28
6506;BME280;3286;49.858;8.768;2023-03-03T08:23:20;99800.06;;;1.98;59.84
6506;BME280;3286;49.858;8.768;2023-03-03T08:25:48;99794.00;;;1.11;63.23
6506;BME280;3286;49.858;8.768;2023-03-03T08:28:15;99797.19;;;0.81;63.82
6506;BME280;3286;49.858;8.768;2023-03-03T08:30:43;99797.41;;;1.82;61.78
6506;BME280;3286;49.858;8.768;2023-03-03T08:33:11;99792.72;;;2.23;59.81
6506;BME280;3286;49.858;8.768;2023-03-03T08:35:39;99793.38;;;2.10;60.08
6506;BME280;3286;49.858;8.768;2023-03-03T08:38:07;99801.13;;;1.43;61.90
6506;BME280;3286;49.858;8.768;2023-03-03T08:40:34;99804.34;;;1.99;61.26
6506;BME280;3286;49.858;8.768;2023-03-03T08:43:01;99799.22;;;1.64;62.10
6506;BME280;3286;49.858;8.768;2023-03-03T08:45:28;99796.22;;;1.72;61.18
6506;BME280;3286;49.858;8.768;2023-03-03T08:47:55;99791.66;;;1.93;60.52
6506;BME280;3286;49.858;8.768;2023-03-03T08:50:21;99789.69;;;2.63;59.70
6506;BME280;3286;49.858;8.768;2023-03-03T08:52:49;99783.84;;;2.89;58.36
6506;BME280;3286;49.858;8.768;2023-03-03T08:55:16;99790.53;;;2.47;58.91
6506;BME280;3286;49.858;8.768;2023-03-03T08:57:43;99781.97;;;3.38;56.58
6506;BME280;3286;49.858;8.768;2023-03-03T09:00:13;99782.94;;;3.21;57.09
6506;BME280;3286;49.858;8.768;2023-03-03T09:02:40;99797.03;;;2.56;58.68
6506;BME280;3286;49.858;8.768;2023-03-03T09:05:08;99792.00;;;2.99;57.76
6506;BME280;3286;49.858;8.768;2023-03-03T09:07:35;99785.47;;;3.68;56.95
6506;BME280;3286;49.858;8.768;2023-03-03T09:10:05;99780.44;;;4.08;54.74
6506;BME280;3286;49.858;8.768;2023-03-03T09:12:34;99787.59;;;4.48;53.28
6506;BME280;3286;49.858;8.768;2023-03-03T09:15:11;99792.75;;;4.35;53.79
6506;BME280;3286;49.858;8.768;2023-03-03T09:17:40;99788.47;;;4.89;52.96
6506;BME280;3286;49.858;8.768;2023-03-03T09:20:20;99789.19;;;4.78;54.18
6506;BME280;3286;49.858;8.768;2023-03-03T09:22:48;99799.50;;;5.21;51.72
6506;BME280;3286;49.858;8.768;2023-03-03T09:25:21;99794.47;;;5.44;51.74
6506;BME280;3286;49.858;8.768;2023-03-03T09:27:52;99789.13;;;5.33;51.67
6506;BME280;3286;49.858;8.768;2023-03-03T09:30:33;99796.63;;;3.55;55.77
6506;BME280;3286;49.858;8.768;2023-03-03T09:33:01;99797.06;;;3.92;54.52
6506;BME280;3286;49.858;8.768;2023-03-03T09:35:42;99803.03;;;4.66;52.91
6506;BME280;3286;49.858;8.768;2023-03-03T09:38:24;99794.41;;;5.05;52.60
6506;BME280;3286;49.858;8.768;2023-03-03T09:41:07;99806.06;;;4.59;52.96
6506;BME280;3286;49.858;8.768;2023-03-03T09:43:47;99805.72;;;5.59;51.04
6506;BME280;3286;49.858;8.768;2023-03-03T09:46:21;99799.25;;;6.04;49.57
6506;BME280;3286;49.858;8.768;2023-03-03T09:49:04;99798.09;;;5.95;51.01
6506;BME280;3286;49.858;8.768;2023-03-03T09:51:58;99785.59;;;6.25;49.32
6506;BME280;3286;49.858;8.768;2023-03-03T09:54:39;99782.63;;;6.29;49.39
6506;BME280;3286;49.858;8.768;2023-03-03T09:57:13;99788.47;;;6.59;48.14
6506;BME280;3286;49.858;8.768;2023-03-03T10:00:00;99782.22;;;7.44;45.33
6506;BME280;3286;49.858;8.768;2023-03-03T10:02:46;99792.69;;;7.21;46.28
6506;BME280;3286;49.858;8.768;2023-03-03T10:05:25;99805.47;;;7.73;45.68
6506;BME280;3286;49.858;8.768;2023-03-03T10:08:02;99797.50;;;8.09;44.72
6506;BME280;3286;49.858;8.768;2023-03-03T10:10:55;99794.00;;;7.74;46.11
6506;BME280;3286;49.858;8.768;2023-03-03T10:13:39;99802.63;;;7.76;45.29
6506;BME280;3286;49.858;8.768;2023-03-03T10:16:30;99789.13;;;7.81;45.61
6506;BME280;3286;49.858;8.768;2023-03-03T10:19:11;99800.50;;;8.16;45.05
6506;BME280;3286;49.858;8.768;2023-03-03T10:21:44;99804.66;;;7.84;44.82
6506;BME280;3286;49.858;8.768;2023-03-03T10:24:26;99809.13;;;7.12;45.69
6506;BME280;3286;49.858;8.768;2023-03-03T10:27:10;99809.50;;;7.19;46.72
6506;BME280;3286;49.858;8.768;2023-03-03T10:29:51;99803.16;;;6.86;46.80
6506;BME280;3286;49.858;8.768;2023-03-03T10:32:42;99788.88;;;7.84;44.32
6506;BME280;3286;49.858;8.768;2023-03-03T10:35:24;99789.47;;;8.33;42.94
6506;BME280;3286;49.858;8.768;2023-03-03T10:38:08;99793.72;;;7.54;44.77
6506;BME280;3286;49.858;8.768;2023-03-03T10:40:44;99796.09;;;7.46;45.23
6506;BME280;3286;49.858;8.768;2023-03-03T10:43:44;99800.13;;;7.86;44.78
6506;BME280;3286;49.858;8.768;2023-03-03T10:46:28;99800.06;;;7.63;44.66
6506;BME280;3286;49.858;8.768;2023-03-03T10:49:21;99798.31;;;8.44;42.48
6506;BME280;3286;49.858;8.768;2023-03-03T10:54:50;99796.03;;;8.39;41.68
6506;BME280;3286;49.858;8.768;2023-03-03T10:57:24;99802.31;;;8.93;41.74
6506;BME280;3286;49.858;8.768;2023-03-03T11:00:06;99803.97;;;8.27;41.37
6506;BME280;3286;49.858;8.768;2023-03-03T11:02:52;99815.13;;;8.98;42.00
6506;BME280;3286;49.858;8.768;2023-03-03T11:05:32;99817.03;;;7.48;43.46
6506;BME280;3286;49.858;8.768;2023-03-03T11:08:06;99817.53;;;7.64;44.81
6506;BME280;3286;49.858;8.768;2023-03-03T11:10:46;99809.56;;;8.34;42.61
6506;BME280;3286;49.858;8.768;2023-03-03T11:13:20;99809.94;;;7.84;42.32
6506;BME280;3286;49.858;8.768;2023-03-03T11:15:58;99807.88;;;8.67;40.58
6506;BME280;3286;49.858;8.768;2023-03-03T11:18:52;99805.88;;;8.60;41.22
6506;BME280;3286;49.858;8.768;2023-03-03T11:21:30;99805.50;;;8.30;41.78
6506;BME280;3286;49.858;8.768;2023-03-03T11:24:14;99800.72;;;8.24;42.89
6506;BME280;3286;49.858;8.768;2023-03-03T11:26:53;99807.66;;;7.08;44.99
6506;BME280;3286;49.858;8.768;2023-03-03T11:29:31;99807.19;;;8.20;42.79
6506;BME280;3286;49.858;8.768;2023-03-03T11:32:10;99797.56;;;7.62;44.33
6506;BME280;3286;49.858;8.768;2023-03-03T11:34:52;99796.41;;;8.46;42.24
6506;BME280;3286;49.858;8.768;2023-03-03T11:37:24;99787.31;;;8.61;41.16
6506;BME280;3286;49.858;8.768;2023-03-03T11:39:54;99784.31;;;8.54;41.55
6506;BME280;3286;49.858;8.768;2023-03-03T11:42:25;99774.78;;;8.86;41.44
6506;BME280;3286;49.858;8.768;2023-03-03T11:44:55;99777.28;;;9.84;39.00
6506;BME280;3286;49.858;8.768;2023-03-03T11:47:28;99766.44;;;9.87;38.44
6506;BME280;3286;49.858;8.768;2023-03-03T11:50:02;99766.47;;;9.66;38.30
6506;BME280;3286;49.858;8.768;2023-03-03T11:52:36;99768.72;;;9.49;39.13
6506;BME280;3286;49.858;8.768;2023-03-03T11:55:09;99765.56;;;8.80;40.08
6506;BME280;3286;49.858;8.768;2023-03-03T11:57:40;99765.88;;;9.83;39.16
6506;BME280;3286;49.858;8.768;2023-03-03T12:00:19;99762.81;;;9.57;38.91
6506;BME280;3286;49.858;8.768;2023-03-03T12:03:10;99750.50;;;9.67;39.21
6506;BME280;3286;49.858;8.768;2023-03-03T12:05:54;99752.94;;;9.80;37.79
6506;BME280;3286;49.858;8.768;2023-03-03T12:08:30;99742.50;;;9.26;39.96
6506;BME280;3286;49.858;8.768;2023-03-03T12:11:06;99740.97;;;10.17;38.21
6506;BME280;3286;49.858;8.768;2023-03-03T12:13:47;99729.63;;;10.36;38.75
6506;BME280;3286;49.858;8.768;2023-03-03T12:16:27;99731.25;;;10.68;36.79
6506;BME280;3286;49.858;8.768;2023-03-03T12:19:05;99736.41;;;10.90;36.46
6506;BME280;3286;49.858;8.768;2023-03-03T12:21:53;99737.50;;;10.67;37.16
6506;BME280;3286;49.858;8.768;2023-03-03T12:24:50;99738.13;;;9.89;39.31
6506;BME280;3286;49.858;8.768;2023-03-03T12:27:25;99737.69;;;9.94;38.48
6506;BME280;3286;49.858;8.768;2023-03-03T12:30:01;99725.19;;;10.37;38.22
6506;BME280;3286;49.858;8.768;2023-03-03T12:32:44;99722.63;;;10.76;36.18
6506;BME280;3286;49.858;8.768;2023-03-03T12:35:19;99714.72;;;10.86;36.15
6506;BME280;3286;49.858;8.768;2023-03-03T12:37:54;99705.03;;;11.34;36.07
6506;BME280;3286;49.858;8.768;2023-03-03T12:40:25;99714.88;;;10.24;37.43
6506;BME280;3286;49.858;8.768;2023-03-03T12:43:21;99703.13;;;11.16;36.58
6506;BME280;3286;49.858;8.768;2023-03-03T12:45:58;99702.44;;;11.24;36.37
6506;BME280;3286;49.858;8.768;2023-03-03T12:48:37;99702.88;;;10.51;37.64
6506;BME280;3286;49.858;8.768;2023-03-03T12:51:14;99695.91;;;10.79;36.02
6506;BME280;3286;49.858;8.768;2023-03-03T12:54:13;99693.00;;;10.53;37.02
6506;BME280;3286;49.858;8.768;2023-03-03T12:56:47;99702.34;;;10.06;37.70
6506;BME280;3286;49.858;8.768;2023-03-03T12:59:20;99706.13;;;10.23;37.45
6506;BME280;3286;49.858;8.768;2023-03-03T13:02:04;99690.47;;;10.81;36.87
6506;BME280;3286;49.858;8.768;2023-03-03T13:04:41;99691.50;;;11.47;34.67
6506;BME280;3286;49.858;8.768;2023-03-03T13:07:15;99687.84;;;10.81;35.71
6506;BME280;3286;49.858;8.768;2023-03-03T13:10:06;99682.31;;;11.41;36.00
6506;BME280;3286;49.858;8.768;2023-03-03T13:12:37;99676.28;;;10.92;35.99
6506;BME280;3286;49.858;8.768;2023-03-03T13:15:12;99681.56;;;11.11;35.91
6506;BME280;3286;49.858;8.768;2023-03-03T13:17:45;99688.25;;;10.56;37.42
6506;BME280;3286;49.858;8.768;2023-03-03T13:20:21;99693.16;;;9.69;38.50
6506;BME280;3286;49.858;8.768;2023-03-03T13:22:54;99688.13;;;10.48;38.01
6506;BME280;3286;49.858;8.768;2023-03-03T13:25:39;99683.69;;;10.88;36.88
6506;BME280;3286;49.858;8.768;2023-03-03T13:28:14;99687.25;;;9.77;38.68
6506;BME280;3286;49.858;8.768;2023-03-03T13:30:47;99675.81;;;11.26;36.84
6506;BME280;3286;49.858;8.768;2023-03-03T13:33:19;99666.69;;;11.86;34.92
6506;BME280;3286;49.858;8.768;2023-03-03T13:35:52;99668.00;;;12.46;33.85
6506;BME280;3286;49.858;8.768;2023-03-03T13:38:21;99668.00;;;11.34;35.78
6506;BME280;3286;49.858;8.768;2023-03-03T13:40:53;99666.94;;;11.65;34.91
6506;BME280;3286;49.858;8.768;2023-03-03T13:43:27;99665.31;;;10.96;36.38
6506;BME280;3286;49.858;8.768;2023-03-03T13:46:01;99671.31;;;10.69;37.94
6506;BME280;3286;49.858;8.768;2023-03-03T13:49:01;99665.63;;;10.64;37.22
6506;BME280;3286;49.858;8.768;2023-03-03T13:51:40;99662.66;;;11.06;36.28
6506;BME280;3286;49.858;8.768;2023-03-03T13:54:13;99663.94;;;10.82;36.85
6506;BME280;3286;49.858;8.768;2023-03-03T13:57:03;99666.50;;;11.32;36.35
6506;BME280;3286;49.858;8.768;2023-03-03T13:59:40;99662.94;;;11.03;36.74
6506;BME280;3286;49.858;8.768;2023-03-03T14:02:35;99663.81;;;10.45;37.49